createdAt,value
2017-09-13T00:00:26.890Z,14.10
2017-09-13T00:02:55.504Z,14.10
2017-09-13T00:05:24.123Z,13.89
2017-09-13T00:07:54.391Z,13.73
2017-09-13T00:10:22.763Z,13.72
2017-09-13T00:12:51.140Z,13.75
2017-09-13T00:15:21.663Z,13.59
2017-09-13T00:17:50.234Z,13.50
2017-09-13T00:20:19.554Z,13.71
2017-09-13T00:22:48.744Z,13.72
2017-09-13T00:25:17.089Z,13.69
2017-09-13T00:27:45.549Z,13.79
2017-09-13T00:30:15.203Z,13.67
2017-09-13T00:32:44.359Z,13.64
2017-09-13T00:35:13.506Z,13.55
2017-09-13T00:37:42.211Z,13.32
2017-09-13T00:40:10.619Z,13.27
2017-09-13T00:42:39.891Z,13.35
2017-09-13T00:45:09.533Z,13.20
2017-09-13T00:47:38.473Z,13.28
2017-09-13T00:50:06.851Z,13.33
2017-09-13T00:52:35.543Z,13.31
2017-09-13T00:55:04.060Z,13.45
2017-09-13T00:57:33.480Z,13.24
2017-09-13T01:00:02.907Z,13.54
2017-09-13T01:02:31.271Z,13.38
2017-09-13T01:05:00.402Z,13.32
2017-09-13T01:07:29.204Z,13.48
2017-09-13T01:09:58.385Z,13.31
2017-09-13T01:12:26.771Z,13.52
2017-09-13T01:14:57.687Z,13.49
2017-09-13T01:17:26.090Z,13.49
2017-09-13T01:19:57.305Z,13.62
2017-09-13T01:22:26.030Z,13.70
2017-09-13T01:24:54.401Z,13.55
2017-09-13T01:27:24.527Z,13.59
2017-09-13T01:29:53.506Z,13.71
2017-09-13T01:32:21.882Z,13.63
2017-09-13T01:34:50.267Z,13.67
2017-09-13T01:37:19.141Z,13.66
2017-09-13T01:39:47.481Z,13.71
2017-09-13T01:42:15.836Z,13.62
2017-09-13T01:44:47.004Z,13.72
2017-09-13T01:47:16.787Z,13.60
2017-09-13T01:49:47.042Z,13.61
2017-09-13T01:52:17.000Z,13.68
2017-09-13T01:54:45.374Z,13.70
2017-09-13T01:57:14.817Z,13.75
2017-09-13T01:59:43.203Z,13.77
2017-09-13T02:02:11.582Z,13.95
2017-09-13T02:04:41.440Z,13.73
2017-09-13T02:07:09.789Z,13.58
2017-09-13T02:09:38.130Z,13.71
2017-09-13T02:12:07.094Z,13.85
2017-09-13T02:14:35.681Z,13.83
2017-09-13T02:17:04.665Z,13.75
2017-09-13T02:19:33.558Z,13.72
2017-09-13T02:22:01.901Z,13.64
2017-09-13T02:24:30.987Z,13.66
2017-09-13T02:26:59.641Z,13.80
2017-09-13T02:29:28.934Z,13.76
2017-09-13T02:31:58.056Z,13.62
2017-09-13T02:34:27.135Z,13.72
2017-09-13T02:36:55.457Z,13.79
2017-09-13T02:39:24.598Z,13.77
2017-09-13T02:41:54.134Z,13.70
2017-09-13T02:44:22.484Z,13.80
2017-09-13T02:46:50.813Z,13.86
2017-09-13T02:49:19.477Z,13.68
2017-09-13T02:51:48.420Z,13.49
2017-09-13T02:54:21.398Z,13.64
2017-09-13T02:56:52.435Z,13.86
2017-09-13T02:59:21.905Z,14.05
2017-09-13T03:01:50.243Z,13.95
2017-09-13T03:04:18.644Z,13.76
2017-09-13T03:06:49.070Z,13.92
2017-09-13T03:09:17.461Z,13.91
2017-09-13T03:11:45.837Z,13.93
2017-09-13T03:14:16.292Z,13.76
2017-09-13T03:16:44.646Z,13.84
2017-09-13T03:19:12.991Z,13.82
2017-09-13T03:21:42.511Z,13.84
2017-09-13T03:24:10.873Z,13.76
2017-09-13T03:26:39.246Z,13.76
2017-09-13T03:29:09.940Z,13.82
2017-09-13T03:31:38.296Z,13.93
2017-09-13T03:34:06.711Z,13.97
2017-09-13T03:36:35.581Z,13.92
2017-09-13T03:39:03.920Z,13.84
2017-09-13T03:41:32.352Z,13.86
2017-09-13T03:44:01.008Z,14.03
2017-09-13T03:46:30.293Z,14.16
2017-09-13T03:48:58.671Z,14.15
2017-09-13T03:51:28.096Z,14.19
2017-09-13T03:53:56.481Z,14.12
2017-09-13T03:56:24.856Z,13.99
2017-09-13T03:58:53.540Z,14.12
2017-09-13T04:01:22.115Z,14.20
2017-09-13T04:03:50.483Z,13.94
2017-09-13T04:06:19.334Z,13.98
2017-09-13T04:08:47.697Z,14.00
2017-09-13T04:11:16.871Z,13.90
2017-09-13T04:13:45.509Z,14.03
2017-09-13T04:16:13.896Z,13.69
2017-09-13T04:18:42.270Z,13.79
2017-09-13T04:21:12.086Z,13.63
2017-09-13T04:23:40.418Z,13.53
2017-09-13T04:26:08.773Z,13.51
2017-09-13T04:28:37.766Z,13.65
2017-09-13T04:31:06.258Z,13.80
2017-09-13T04:33:34.615Z,13.69
2017-09-13T04:36:03.386Z,13.48
2017-09-13T04:38:34.489Z,13.46
2017-09-13T04:41:03.401Z,13.34
2017-09-13T04:43:33.148Z,13.37
2017-09-13T04:46:01.746Z,13.48
2017-09-13T04:48:30.114Z,13.58
2017-09-13T04:50:58.751Z,13.49
2017-09-13T04:53:28.726Z,13.52
2017-09-13T04:55:57.112Z,13.41
2017-09-13T04:58:25.919Z,13.58
2017-09-13T05:00:55.120Z,13.72
2017-09-13T05:03:23.468Z,13.61
2017-09-13T05:05:53.168Z,13.62
2017-09-13T05:08:22.264Z,13.64
2017-09-13T05:10:50.632Z,13.47
2017-09-13T05:13:20.780Z,13.57
2017-09-13T05:15:49.660Z,13.36
2017-09-13T05:18:19.479Z,13.25
2017-09-13T05:20:48.359Z,13.26
2017-09-13T05:23:16.698Z,13.54
2017-09-13T05:25:45.933Z,13.51
2017-09-13T05:28:15.095Z,13.57
2017-09-13T05:30:43.472Z,13.48
2017-09-13T05:33:11.855Z,13.35
2017-09-13T05:35:40.679Z,13.31
2017-09-13T05:38:09.074Z,13.20
2017-09-13T05:40:37.451Z,13.41
2017-09-13T05:43:06.990Z,12.89
2017-09-13T05:45:35.333Z,12.75
2017-09-13T05:48:04.273Z,12.62
2017-09-13T05:50:34.011Z,13.29
2017-09-13T05:53:02.362Z,13.36
2017-09-13T05:55:31.558Z,13.32
2017-09-13T05:58:00.473Z,13.50
2017-09-13T06:00:28.887Z,13.53
2017-09-13T06:02:57.419Z,13.56
2017-09-13T06:05:26.113Z,13.60
2017-09-13T06:07:55.295Z,13.28
2017-09-13T06:10:23.659Z,13.27
2017-09-13T06:12:52.798Z,13.32
2017-09-13T06:15:21.372Z,13.27
2017-09-13T06:17:50.615Z,13.40
2017-09-13T06:20:19.499Z,13.15
2017-09-13T06:22:49.368Z,13.26
2017-09-13T06:25:17.726Z,13.35
2017-09-13T06:27:47.471Z,13.49
2017-09-13T06:30:16.118Z,13.46
2017-09-13T06:32:44.474Z,13.63
2017-09-13T06:35:14.185Z,13.44
2017-09-13T06:37:43.187Z,13.51
2017-09-13T06:40:11.541Z,13.44
2017-09-13T06:42:41.024Z,13.52
2017-09-13T06:45:09.649Z,13.39
2017-09-13T06:47:38.185Z,13.29
2017-09-13T06:50:07.507Z,13.12
2017-09-13T06:52:35.862Z,13.19
2017-09-13T06:55:04.212Z,13.27
2017-09-13T06:57:33.495Z,13.55
2017-09-13T07:00:02.822Z,13.70
2017-09-13T07:02:33.018Z,13.59
2017-09-13T07:05:01.682Z,13.59
2017-09-13T07:07:31.617Z,13.60
2017-09-13T07:09:59.964Z,13.61
2017-09-13T07:12:30.411Z,13.67
2017-09-13T07:14:58.790Z,13.73
2017-09-13T07:17:27.145Z,13.48
2017-09-13T07:19:56.414Z,13.40
2017-09-13T07:22:25.463Z,13.48
2017-09-13T07:24:54.587Z,13.45
2017-09-13T07:27:24.170Z,13.55
2017-09-13T07:29:53.293Z,13.57
2017-09-13T07:32:21.682Z,13.72
2017-09-13T07:34:50.381Z,13.80
2017-09-13T07:37:21.438Z,14.07
2017-09-13T07:39:49.849Z,14.39
2017-09-13T07:42:20.550Z,14.41
2017-09-13T07:44:48.901Z,14.56
2017-09-13T07:47:18.426Z,14.36
2017-09-13T07:49:47.927Z,14.43
2017-09-13T07:52:16.296Z,14.50
2017-09-13T07:54:44.709Z,14.45
2017-09-13T07:57:14.250Z,14.53
2017-09-13T07:59:42.814Z,14.62
2017-09-13T08:02:11.952Z,14.57
2017-09-13T08:04:41.508Z,14.23
2017-09-13T08:07:09.874Z,14.42
2017-09-13T08:09:38.279Z,14.69
2017-09-13T08:12:07.625Z,14.82
2017-09-13T08:14:35.955Z,15.14
2017-09-13T08:17:05.085Z,15.02
2017-09-13T08:19:35.270Z,14.79
2017-09-13T08:22:03.858Z,15.01
2017-09-13T08:24:32.984Z,15.02
2017-09-13T08:27:02.202Z,14.97
2017-09-13T08:29:30.557Z,15.12
2017-09-13T08:31:59.562Z,15.51
2017-09-13T08:34:29.256Z,15.68
2017-09-13T08:36:57.606Z,15.66
2017-09-13T08:39:25.976Z,15.53
2017-09-13T08:41:55.396Z,15.59
2017-09-13T08:44:25.859Z,15.47
2017-09-13T08:46:55.025Z,15.49
2017-09-13T08:49:24.558Z,15.50
2017-09-13T08:51:52.897Z,15.31
2017-09-13T08:54:21.273Z,15.34
2017-09-13T08:56:50.546Z,15.67
2017-09-13T08:59:18.892Z,15.68
2017-09-13T09:01:47.274Z,15.72
2017-09-13T09:04:16.370Z,15.76
2017-09-13T09:06:45.320Z,16.10
2017-09-13T09:09:13.718Z,16.02
2017-09-13T09:11:43.458Z,15.73
2017-09-13T09:14:12.404Z,15.64
2017-09-13T09:16:40.773Z,15.56
2017-09-13T09:19:10.803Z,15.64
2017-09-13T09:21:39.296Z,15.83
2017-09-13T09:24:09.396Z,16.02
2017-09-13T09:26:38.131Z,15.82
2017-09-13T09:29:06.493Z,15.87
2017-09-13T09:31:35.935Z,15.79
2017-09-13T09:34:05.512Z,15.96
2017-09-13T09:36:34.800Z,16.04
2017-09-13T09:39:03.430Z,16.23
2017-09-13T09:41:33.009Z,16.39
2017-09-13T09:44:01.345Z,16.34
2017-09-13T09:46:29.718Z,17.20
2017-09-13T09:48:58.435Z,18.00
2017-09-13T09:51:27.807Z,17.99
2017-09-13T09:53:56.340Z,18.46
2017-09-13T09:56:25.337Z,18.01
2017-09-13T09:58:53.685Z,18.09
2017-09-13T10:01:22.062Z,17.49
2017-09-13T10:03:50.711Z,17.28
2017-09-13T10:06:19.059Z,16.88
2017-09-13T10:08:47.395Z,16.99
2017-09-13T10:11:16.097Z,17.02
2017-09-13T10:13:45.207Z,17.28
2017-09-13T10:16:14.332Z,17.23
2017-09-13T10:18:44.605Z,17.55
2017-09-13T10:21:12.968Z,17.53
2017-09-13T10:23:42.193Z,17.99
2017-09-13T10:26:11.074Z,18.02
2017-09-13T10:28:39.439Z,18.15
2017-09-13T10:31:08.290Z,18.33
2017-09-13T10:33:36.955Z,18.61
2017-09-13T10:36:07.025Z,18.77
2017-09-13T10:38:35.357Z,20.34
2017-09-13T10:41:04.958Z,22.01
2017-09-13T10:43:33.306Z,23.44
2017-09-13T10:46:01.636Z,25.00
2017-09-13T10:48:30.258Z,24.57
2017-09-13T10:50:59.484Z,23.93
2017-09-13T10:53:28.632Z,21.90
2017-09-13T10:55:57.510Z,21.42
2017-09-13T10:58:25.892Z,19.87
2017-09-13T11:00:54.262Z,19.73
2017-09-13T11:03:23.134Z,19.44
2017-09-13T11:05:51.781Z,19.25
2017-09-13T11:08:20.206Z,18.96
2017-09-13T11:10:49.789Z,18.55
2017-09-13T11:13:18.223Z,17.97
2017-09-13T11:15:46.593Z,17.86
2017-09-13T11:18:15.304Z,18.35
2017-09-13T11:20:43.641Z,21.20
2017-09-13T11:23:13.265Z,23.90
2017-09-13T11:25:42.162Z,25.36
2017-09-13T11:28:10.730Z,26.41
2017-09-13T11:30:39.056Z,26.51
2017-09-13T11:33:07.965Z,26.72
2017-09-13T11:35:36.299Z,24.68
2017-09-13T11:38:04.916Z,23.41
2017-09-13T11:40:33.634Z,21.76
2017-09-13T11:43:02.060Z,21.86
2017-09-13T11:45:30.518Z,21.66
2017-09-13T11:47:59.445Z,21.05
2017-09-13T11:50:27.827Z,20.47
2017-09-13T11:52:56.186Z,20.31
2017-09-13T11:55:24.968Z,20.02
2017-09-13T11:57:53.330Z,19.41
2017-09-13T12:00:21.714Z,18.65
2017-09-13T12:02:50.555Z,18.50
2017-09-13T12:05:19.829Z,18.21
2017-09-13T12:07:49.016Z,18.38
2017-09-13T12:10:17.963Z,21.72
2017-09-13T12:12:46.345Z,23.24
2017-09-13T12:15:15.499Z,21.68
2017-09-13T12:17:44.541Z,20.57
2017-09-13T12:20:14.054Z,20.47
2017-09-13T12:22:42.403Z,23.65
2017-09-13T12:25:11.397Z,24.63
2017-09-13T12:27:40.923Z,26.61
2017-09-13T12:30:10.210Z,27.34
2017-09-13T12:32:39.780Z,26.66
2017-09-13T12:35:08.110Z,26.94
2017-09-13T12:37:38.937Z,26.32
2017-09-13T12:40:08.528Z,26.55
2017-09-13T12:42:36.924Z,27.29
2017-09-13T12:45:06.050Z,27.97
2017-09-13T12:47:36.241Z,27.67
2017-09-13T12:50:04.680Z,25.99
2017-09-13T12:52:33.114Z,26.03
2017-09-13T12:55:02.061Z,26.42
2017-09-13T12:57:30.448Z,23.86
2017-09-13T12:59:58.775Z,21.86
2017-09-13T13:02:27.462Z,23.76
2017-09-13T13:04:55.794Z,25.41
2017-09-13T13:07:24.238Z,25.94
2017-09-13T13:09:53.084Z,25.51
2017-09-13T13:12:22.156Z,26.32
2017-09-13T13:14:50.527Z,25.83
2017-09-13T13:17:19.591Z,24.88
2017-09-13T13:19:48.724Z,26.23
2017-09-13T13:22:17.068Z,24.46
2017-09-13T13:24:46.060Z,22.90
2017-09-13T13:27:14.411Z,23.00
2017-09-13T13:29:43.665Z,22.73
2017-09-13T13:32:13.138Z,23.95
2017-09-13T13:34:42.371Z,24.85
2017-09-13T13:37:10.711Z,24.23
2017-09-13T13:39:39.434Z,23.69
2017-09-13T13:42:07.790Z,22.78
2017-09-13T13:44:37.028Z,21.45
2017-09-13T13:47:06.341Z,20.64
2017-09-13T13:49:35.121Z,20.26
2017-09-13T13:52:03.703Z,20.11
2017-09-13T13:54:32.421Z,19.83
2017-09-13T13:57:00.831Z,19.21
2017-09-13T13:59:29.868Z,18.84
2017-09-13T14:01:58.562Z,18.81
2017-09-13T14:04:26.992Z,19.03
2017-09-13T14:06:56.263Z,19.29
2017-09-13T14:09:24.980Z,19.31
2017-09-13T14:11:53.381Z,19.20
2017-09-13T14:14:21.762Z,19.16
2017-09-13T14:16:50.621Z,19.05
2017-09-13T14:19:21.194Z,19.25
2017-09-13T14:21:49.527Z,19.46
2017-09-13T14:24:18.343Z,19.40
2017-09-13T14:26:47.718Z,20.27
2017-09-13T14:29:16.633Z,20.69
2017-09-13T14:31:45.334Z,20.14
2017-09-13T14:34:13.647Z,19.64
2017-09-13T14:36:42.784Z,19.31
2017-09-13T14:39:11.580Z,19.33
2017-09-13T14:41:39.922Z,19.61
2017-09-13T14:44:08.285Z,19.42
2017-09-13T14:46:37.182Z,19.32
2017-09-13T14:49:06.307Z,18.99
2017-09-13T14:51:34.696Z,18.78
2017-09-13T14:54:03.429Z,18.88
2017-09-13T14:56:32.702Z,18.76
2017-09-13T14:59:01.096Z,18.68
2017-09-13T15:01:30.079Z,18.78
2017-09-13T15:03:58.588Z,18.87
2017-09-13T15:06:27.191Z,18.91
2017-09-13T15:08:56.570Z,18.97
2017-09-13T15:11:24.931Z,18.78
2017-09-13T15:13:53.528Z,18.87
2017-09-13T15:16:23.531Z,18.88
2017-09-13T15:18:51.860Z,19.09
2017-09-13T15:21:20.993Z,18.89
2017-09-13T15:23:50.955Z,18.84
2017-09-13T15:26:19.305Z,19.25
2017-09-13T15:28:48.224Z,19.00
2017-09-13T15:31:17.922Z,18.81
2017-09-13T15:33:46.277Z,18.84
2017-09-13T15:36:16.513Z,18.74
2017-09-13T15:38:45.201Z,18.79
2017-09-13T15:41:14.164Z,18.87
2017-09-13T15:43:42.528Z,18.84
2017-09-13T15:46:11.960Z,18.78
2017-09-13T15:48:41.078Z,18.59
2017-09-13T15:51:09.434Z,18.68
2017-09-13T15:53:38.416Z,18.96
2017-09-13T15:56:07.491Z,19.08
2017-09-13T15:58:36.624Z,18.98
2017-09-13T16:01:05.252Z,19.01
2017-09-13T16:03:35.285Z,18.85
2017-09-13T16:06:04.488Z,18.78
2017-09-13T16:08:35.155Z,18.92
2017-09-13T16:11:03.576Z,19.01
2017-09-13T16:13:32.308Z,18.76
2017-09-13T16:16:01.344Z,18.88
2017-09-13T16:18:30.878Z,18.68
2017-09-13T16:21:00.121Z,18.59
2017-09-13T16:23:28.908Z,18.61
2017-09-13T16:25:57.254Z,18.64
2017-09-13T16:28:26.366Z,18.52
2017-09-13T16:30:56.058Z,18.44
2017-09-13T16:33:25.307Z,18.39
2017-09-13T16:35:53.660Z,18.12
2017-09-13T16:38:23.334Z,18.21
2017-09-13T16:40:53.149Z,17.76
2017-09-13T16:43:22.284Z,17.28
2017-09-13T16:45:51.174Z,16.73
2017-09-13T16:48:20.669Z,16.22
2017-09-13T16:50:49.049Z,16.23
2017-09-13T16:53:19.307Z,16.36
2017-09-13T16:55:47.648Z,16.19
2017-09-13T16:58:16.774Z,16.12
2017-09-13T17:00:45.475Z,16.23
2017-09-13T17:03:13.840Z,16.22
2017-09-13T17:05:42.205Z,16.11
2017-09-13T17:08:10.991Z,16.07
2017-09-13T17:10:40.076Z,16.09
2017-09-13T17:13:08.557Z,16.05
2017-09-13T17:15:37.239Z,15.91
2017-09-13T17:18:05.736Z,15.85
2017-09-13T17:20:34.102Z,15.80
2017-09-13T17:23:03.934Z,15.96
2017-09-13T17:25:32.313Z,15.94
2017-09-13T17:28:01.671Z,15.81
2017-09-13T17:30:31.228Z,15.83
2017-09-13T17:32:59.622Z,15.97
2017-09-13T17:35:27.975Z,15.89
2017-09-13T17:37:58.086Z,16.05
2017-09-13T17:40:26.810Z,16.01
2017-09-13T17:42:55.137Z,16.01
2017-09-13T17:45:23.997Z,15.81
2017-09-13T17:47:52.494Z,15.98
2017-09-13T17:50:20.870Z,16.16
2017-09-13T17:52:49.547Z,16.11
2017-09-13T17:55:18.430Z,16.24
2017-09-13T17:58:57.314Z,16.31
2017-09-13T18:01:25.886Z,16.51
2017-09-13T18:03:55.799Z,16.51
2017-09-13T18:06:24.728Z,16.39
2017-09-13T18:08:53.087Z,16.10
2017-09-13T18:11:22.215Z,16.18
2017-09-13T18:13:52.627Z,16.02
2017-09-13T18:16:21.033Z,15.81
2017-09-13T18:18:49.399Z,15.80
2017-09-13T18:21:18.079Z,15.92
2017-09-13T18:23:46.754Z,15.85
2017-09-13T18:26:15.106Z,15.87
2017-09-13T18:28:43.963Z,15.88
2017-09-13T18:31:13.226Z,16.05
2017-09-13T18:33:41.610Z,15.87
2017-09-13T18:36:11.082Z,15.90
2017-09-13T18:38:40.235Z,15.97
2017-09-13T18:41:08.637Z,15.98
2017-09-13T18:43:37.398Z,15.97
2017-09-13T18:46:07.209Z,16.07
2017-09-13T18:48:36.181Z,16.19
2017-09-13T18:51:05.096Z,15.86
2017-09-13T18:53:33.516Z,15.72
2017-09-13T18:56:01.878Z,15.81
2017-09-13T18:58:30.649Z,15.76
2017-09-13T19:01:00.178Z,15.82
2017-09-13T19:03:29.398Z,15.86
2017-09-13T19:05:58.195Z,15.91
2017-09-13T19:08:27.907Z,15.84
2017-09-13T19:10:57.095Z,15.92
2017-09-13T19:13:26.765Z,15.77
2017-09-13T19:15:55.347Z,15.81
2017-09-13T19:18:24.595Z,15.86
2017-09-13T19:20:53.531Z,15.78
2017-09-13T19:23:21.906Z,15.87
2017-09-13T19:25:51.502Z,15.91
2017-09-13T19:28:20.398Z,15.70
2017-09-13T19:30:48.842Z,15.79
2017-09-13T19:33:17.986Z,16.04
2017-09-13T19:35:47.651Z,15.95
2017-09-13T19:38:16.114Z,16.07
2017-09-13T19:40:44.513Z,15.88
2017-09-13T19:43:13.927Z,15.71
2017-09-13T19:45:43.111Z,15.56
2017-09-13T19:48:12.236Z,15.79
2017-09-13T19:50:41.007Z,15.78
2017-09-13T19:53:10.314Z,15.62
2017-09-13T19:55:38.863Z,15.69
2017-09-13T19:58:07.751Z,15.71
2017-09-13T20:00:36.893Z,15.78
2017-09-13T20:03:05.350Z,15.78
2017-09-13T20:05:34.075Z,15.62
2017-09-13T20:08:03.252Z,15.66
2017-09-13T20:10:31.631Z,15.79
2017-09-13T20:13:01.070Z,15.68
2017-09-13T20:15:30.201Z,15.74
2017-09-13T20:17:58.534Z,15.89
2017-09-13T20:20:27.449Z,15.76
2017-09-13T20:22:56.148Z,15.76
2017-09-13T20:25:25.322Z,15.77
2017-09-13T20:27:54.203Z,15.99
2017-09-13T20:30:24.654Z,15.89
2017-09-13T20:32:53.130Z,15.70
2017-09-13T20:35:21.908Z,15.70
2017-09-13T20:37:50.279Z,15.73
2017-09-13T20:40:18.680Z,15.62
2017-09-13T20:42:47.572Z,15.67
2017-09-13T20:45:15.993Z,15.60
2017-09-13T20:47:44.347Z,15.60
2017-09-13T20:50:13.236Z,15.63
2017-09-13T20:52:41.626Z,15.55
2017-09-13T20:55:10.163Z,15.73
2017-09-13T20:57:40.374Z,15.79
2017-09-13T21:00:09.060Z,15.60
2017-09-13T21:02:37.440Z,15.56
2017-09-13T21:05:06.387Z,15.57
2017-09-13T21:07:34.784Z,15.80
2017-09-13T21:10:03.914Z,15.83
2017-09-13T21:12:32.616Z,15.96
2017-09-13T21:15:00.996Z,15.68
2017-09-13T21:17:29.401Z,15.58
2017-09-13T21:19:59.225Z,15.70
2017-09-13T21:22:27.587Z,15.78
2017-09-13T21:24:56.589Z,15.54
2017-09-13T21:27:28.268Z,15.77
2017-09-13T21:29:57.754Z,15.66
2017-09-13T21:32:26.703Z,15.52
2017-09-13T21:34:55.342Z,15.44
2017-09-13T21:37:25.190Z,15.57
2017-09-13T21:39:54.119Z,15.45
2017-09-13T21:42:22.775Z,15.37
2017-09-13T21:44:51.190Z,15.16
2017-09-13T21:47:20.498Z,15.17
2017-09-13T21:49:49.414Z,15.16
2017-09-13T21:52:18.605Z,15.00
2017-09-13T21:54:47.394Z,14.97
2017-09-13T21:57:16.221Z,15.06
2017-09-13T21:59:44.612Z,15.01
2017-09-13T22:02:13.827Z,14.94
2017-09-13T22:04:43.062Z,15.29
2017-09-13T22:07:11.469Z,15.47
2017-09-13T22:09:39.844Z,15.23
2017-09-13T22:12:11.865Z,15.13
2017-09-13T22:14:40.306Z,15.10
2017-09-13T22:17:08.665Z,15.13
2017-09-13T22:19:38.116Z,15.09
2017-09-13T22:22:06.468Z,15.05
2017-09-13T22:24:34.929Z,14.91
2017-09-13T22:27:03.589Z,14.89
2017-09-13T22:29:31.986Z,14.81
2017-09-13T22:32:02.960Z,14.91
2017-09-13T22:34:32.364Z,14.76
2017-09-13T22:37:01.887Z,14.64
2017-09-13T22:39:30.279Z,14.65
2017-09-13T22:41:59.041Z,14.71
2017-09-13T22:44:27.420Z,14.64
2017-09-13T22:46:55.799Z,14.78
2017-09-13T22:49:25.304Z,14.72
2017-09-13T22:51:53.667Z,14.95
2017-09-13T22:54:22.047Z,14.41
2017-09-13T22:56:51.051Z,14.48
2017-09-13T22:59:20.280Z,14.31
2017-09-13T23:01:49.210Z,14.68
2017-09-13T23:04:19.329Z,14.67
2017-09-13T23:06:48.453Z,14.47
2017-09-13T23:09:16.815Z,14.38
2017-09-13T23:11:46.580Z,14.33
2017-09-13T23:14:15.772Z,14.60
2017-09-13T23:16:45.376Z,14.57
2017-09-13T23:19:14.919Z,14.50
2017-09-13T23:21:43.389Z,14.37
2017-09-13T23:24:11.748Z,14.49
2017-09-13T23:26:41.362Z,14.49
2017-09-13T23:29:10.549Z,14.27
2017-09-13T23:31:38.932Z,14.39
2017-09-13T23:34:07.974Z,14.26
2017-09-13T23:36:37.088Z,14.17
2017-09-13T23:39:06.207Z,14.24
2017-09-13T23:41:35.095Z,14.15
2017-09-13T23:44:03.476Z,14.27
2017-09-13T23:46:33.582Z,14.03
2017-09-13T23:49:02.253Z,14.17
2017-09-13T23:51:31.639Z,14.16
2017-09-13T23:53:59.987Z,14.12
2017-09-13T23:56:29.860Z,14.29
2017-09-13T23:58:59.837Z,14.22
